Time;durP1;ratioP1;P1;durP2;ratioP2;P2;SDS_P1;SDS_P2;PMS_P1;PMS_P2;Temp;Humidity;BMP_temperature;BMP_pressure;BME280_temperature;BME280_humidity;BME280_pressure;Samples;Min_cycle;Max_cycle;Signal;HPM_P1;HPM_P2
2022/04/07 00:00:26;;;;;;;10.38;7.65;;;;;;;;;;4953295;28;20552;-72
2022/04/07 00:02:52;;;;;;;8.65;7.80;;;;;;;;;;4981947;28;20085;-73
2022/04/07 00:05:18;;;;;;;9.82;8.00;;;;;;;;;;4959691;28;20113;-71
2022/04/07 00:07:44;;;;;;;10.48;7.82;;;;;;;;;;4978388;28;20042;-73
2022/04/07 00:10:10;;;;;;;11.02;7.75;;;;;;;;;;4985114;28;20065;-72
2022/04/07 00:12:37;;;;;;;13.15;8.93;;;;;;;;;;4990789;28;20077;-72
2022/04/07 00:15:03;;;;;;;11.68;9.20;;;;;;;;;;4975203;28;20066;-73
2022/04/07 00:17:29;;;;;;;12.90;9.60;;;;;;;;;;4981271;28;20529;-72
2022/04/07 00:19:55;;;;;;;13.80;9.90;;;;;;;;;;4975786;28;20104;-76
2022/04/07 00:22:21;;;;;;;23.50;11.45;;;;;;;;;;4991123;28;20074;-74
2022/04/07 00:24:47;;;;;;;13.90;10.30;;;;;;;;;;4991947;28;20400;-73
2022/04/07 00:27:13;;;;;;;13.68;11.00;;;;;;;;;;4976642;28;20122;-72
2022/04/07 00:29:39;;;;;;;20.55;12.38;;;;;;;;;;4958243;28;20564;-73
2022/04/07 00:32:06;;;;;;;17.88;11.77;;;;;;;;;;4961689;28;20097;-74
2022/04/07 00:34:33;;;;;;;16.35;12.15;;;;;;;;;;4986032;28;20050;-71
2022/04/07 00:36:59;;;;;;;16.42;11.95;;;;;;;;;;4981135;28;20085;-74
2022/04/07 00:39:25;;;;;;;16.35;12.07;;;;;;;;;;4990544;28;20484;-74
2022/04/07 00:41:51;;;;;;;15.57;11.82;;;;;;;;;;4960368;28;20066;-72
2022/04/07 00:44:18;;;;;;;16.05;12.50;;;;;;;;;;4971741;28;20121;-72
2022/04/07 00:46:43;;;;;;;14.98;11.38;;;;;;;;;;4974694;28;20076;-73
2022/04/07 00:49:10;;;;;;;12.55;10.85;;;;;;;;;;4988005;28;20577;-72
2022/04/07 00:51:38;;;;;;;15.80;11.25;;;;;;;;;;4979510;28;20523;-72
2022/04/07 00:54:04;;;;;;;20.10;12.85;;;;;;;;;;4988766;28;20405;-73
2022/04/07 00:56:31;;;;;;;17.48;11.38;;;;;;;;;;4975981;28;20047;-73
2022/04/07 00:58:57;;;;;;;15.10;11.70;;;;;;;;;;4977062;28;20058;-73
2022/04/07 01:01:27;;;;;;;16.85;11.18;;;;;;;;;;4961037;28;20089;-72
2022/04/07 01:03:54;;;;;;;13.85;10.50;;;;;;;;;;4978426;28;20490;-72
2022/04/07 01:06:21;;;;;;;16.48;9.95;;;;;;;;;;4963906;28;20058;-72
2022/04/07 01:08:47;;;;;;;12.45;9.23;;;;;;;;;;4987593;28;20527;-72
2022/04/07 01:11:13;;;;;;;14.68;9.80;;;;;;;;;;4960854;28;20054;-72
2022/04/07 01:13:45;;;;;;;17.10;9.75;;;;;;;;;;4979090;28;20054;-72
2022/04/07 01:16:12;;;;;;;12.85;9.70;;;;;;;;;;4973980;28;20518;-72
2022/04/07 01:18:38;;;;;;;14.23;8.82;;;;;;;;;;4991436;28;20051;-71
2022/04/07 01:21:04;;;;;;;13.07;9.60;;;;;;;;;;4973604;28;20409;-71
2022/04/07 01:23:34;;;;;;;14.52;9.77;;;;;;;;;;4947193;28;20178;-72
2022/04/07 01:26:01;;;;;;;13.55;9.35;;;;;;;;;;4989708;28;20051;-72
2022/04/07 01:28:27;;;;;;;11.60;9.40;;;;;;;;;;4976614;28;20042;-72
2022/04/07 01:30:53;;;;;;;16.40;9.25;;;;;;;;;;4990428;28;20046;-72
2022/04/07 01:33:19;;;;;;;13.50;8.70;;;;;;;;;;4981959;28;20046;-73
2022/04/07 01:35:45;;;;;;;11.13;8.50;;;;;;;;;;4958096;28;20050;-72
2022/04/07 01:38:11;;;;;;;16.25;9.55;;;;;;;;;;4976996;28;20512;-71
2022/04/07 01:40:38;;;;;;;14.75;8.75;;;;;;;;;;4974031;28;20042;-71
2022/04/07 01:43:06;;;;;;;9.23;7.53;;;;;;;;;;4969548;28;20100;-72
2022/04/07 01:45:33;;;;;;;13.90;8.23;;;;;;;;;;4976227;28;20046;-75
2022/04/07 01:48:00;;;;;;;13.93;8.02;;;;;;;;;;4976096;28;20057;-73
2022/04/07 01:50:26;;;;;;;12.70;6.50;;;;;;;;;;4957137;28;20449;-72
2022/04/07 01:52:52;;;;;;;11.35;6.80;;;;;;;;;;4979580;28;20054;-73
2022/04/07 01:55:18;;;;;;;8.90;6.80;;;;;;;;;;4986146;28;20497;-72
2022/04/07 01:57:45;;;;;;;9.48;6.50;;;;;;;;;;4994499;28;20125;-74
2022/04/07 02:00:11;;;;;;;12.43;6.75;;;;;;;;;;4976133;28;20050;-73
2022/04/07 02:02:37;;;;;;;10.35;6.90;;;;;;;;;;4972895;28;20047;-72
2022/04/07 02:05:08;;;;;;;10.13;5.75;;;;;;;;;;4972543;28;20096;-73
2022/04/07 02:07:35;;;;;;;7.75;5.82;;;;;;;;;;4979618;28;20042;-75
2022/04/07 02:10:02;;;;;;;9.50;5.95;;;;;;;;;;4990420;28;20489;-73
2022/04/07 02:12:29;;;;;;;9.45;5.75;;;;;;;;;;4950220;28;20051;-73
2022/04/07 02:14:55;;;;;;;7.88;5.63;;;;;;;;;;4960923;28;20061;-73
2022/04/07 02:17:22;;;;;;;11.77;5.72;;;;;;;;;;4952054;28;20039;-70
2022/04/07 02:19:49;;;;;;;9.35;5.88;;;;;;;;;;4982045;28;20042;-71
2022/04/07 02:22:16;;;;;;;10.35;5.72;;;;;;;;;;4958391;28;20042;-73
2022/04/07 02:24:41;;;;;;;13.93;6.25;;;;;;;;;;4975211;28;20039;-72
2022/04/07 02:27:10;;;;;;;;;;;;;;;;;;4994227;28;20484;-72
2022/04/07 02:29:36;;;;;;;11.45;5.20;;;;;;;;;;4972849;28;19922;-72
2022/04/07 02:32:03;;;;;;;9.38;5.50;;;;;;;;;;4970559;28;20121;-73
2022/04/07 02:34:29;;;;;;;13.90;6.82;;;;;;;;;;4992273;28;20050;-73
2022/04/07 02:36:55;;;;;;;14.38;6.45;;;;;;;;;;4984851;28;20046;-73
2022/04/07 02:39:21;;;;;;;11.63;6.43;;;;;;;;;;4990959;28;20053;-73
2022/04/07 02:41:47;;;;;;;14.30;6.55;;;;;;;;;;4981093;28;20113;-72
2022/04/07 02:44:13;;;;;;;13.95;6.40;;;;;;;;;;4956995;28;20466;-72
2022/04/07 02:46:39;;;;;;;15.38;6.90;;;;;;;;;;4988164;28;20125;-72
2022/04/07 02:49:06;;;;;;;15.73;7.50;;;;;;;;;;4983528;28;20058;-74
2022/04/07 02:51:32;;;;;;;12.73;6.60;;;;;;;;;;4985097;28;20078;-72
2022/04/07 02:53:58;;;;;;;13.80;6.65;;;;;;;;;;4988903;28;20046;-70
2022/04/07 02:56:28;;;;;;;12.77;6.50;;;;;;;;;;4993843;28;20126;-71
2022/04/07 02:58:54;;;;;;;14.98;7.05;;;;;;;;;;4972699;28;20058;-72
2022/04/07 03:01:20;;;;;;;11.30;6.30;;;;;;;;;;4956669;28;20055;-72
2022/04/07 03:03:48;;;;;;;16.67;6.45;;;;;;;;;;4961729;28;20054;-72
2022/04/07 03:06:14;;;;;;;15.70;7.13;;;;;;;;;;4976224;28;20050;-72
2022/04/07 03:08:40;;;;;;;14.00;7.07;;;;;;;;;;4984612;28;20049;-72
2022/04/07 03:11:07;;;;;;;12.55;7.15;;;;;;;;;;4993696;28;20041;-72
2022/04/07 03:13:33;;;;;;;15.40;7.60;;;;;;;;;;4971143;28;20047;-71
2022/04/07 03:15:59;;;;;;;16.10;7.18;;;;;;;;;;4964484;28;20522;-73
2022/04/07 03:18:25;;;;;;;15.95;7.70;;;;;;;;;;4952359;28;20096;-72
2022/04/07 03:20:52;;;;;;;11.70;6.80;;;;;;;;;;4967674;28;20051;-72
2022/04/07 03:23:18;;;;;;;14.60;7.32;;;;;;;;;;4962842;28;20047;-72
2022/04/07 03:25:45;;;;;;;16.40;7.53;;;;;;;;;;4979862;28;20408;-71
2022/04/07 03:28:11;;;;;;;10.07;7.05;;;;;;;;;;4978473;28;20145;-72
2022/04/07 03:30:37;;;;;;;15.05;7.57;;;;;;;;;;4975504;28;20474;-72
2022/04/07 03:33:06;;;;;;;14.10;6.80;;;;;;;;;;4963892;28;20489;-73
2022/04/07 03:35:32;;;;;;;15.23;7.63;;;;;;;;;;4983731;28;20486;-72
2022/04/07 03:37:58;;;;;;;16.90;7.70;;;;;;;;;;4984040;28;20053;-74
2022/04/07 03:40:27;;;;;;;17.77;7.70;;;;;;;;;;4974788;28;20042;-73
2022/04/07 03:42:53;;;;;;;18.02;6.75;;;;;;;;;;4977754;28;20102;-72
2022/04/07 03:45:19;;;;;;;16.05;7.28;;;;;;;;;;4979283;28;20043;-73
2022/04/07 03:47:45;;;;;;;16.55;6.55;;;;;;;;;;4957016;28;20053;-72
2022/04/07 03:50:11;;;;;;;19.02;6.57;;;;;;;;;;4962986;28;20054;-72
2022/04/07 03:52:37;;;;;;;14.40;6.40;;;;;;;;;;4980465;28;20098;-72
2022/04/07 03:55:04;;;;;;;20.02;6.43;;;;;;;;;;4978482;28;20098;-73
2022/04/07 03:57:30;;;;;;;15.25;6.10;;;;;;;;;;4972024;28;20477;-73
2022/04/07 03:59:57;;;;;;;14.18;6.10;;;;;;;;;;4977225;28;20047;-73
2022/04/07 04:02:23;;;;;;;16.65;6.70;;;;;;;;;;4959538;28;20122;-73
2022/04/07 04:04:49;;;;;;;16.30;6.05;;;;;;;;;;4990410;28;20133;-73
2022/04/07 04:07:15;;;;;;;19.00;6.40;;;;;;;;;;4975313;28;20477;-73
2022/04/07 04:09:41;;;;;;;17.35;5.57;;;;;;;;;;4960221;28;20118;-73
2022/04/07 04:12:07;;;;;;;20.33;6.40;;;;;;;;;;4985513;28;20051;-72
2022/04/07 04:14:34;;;;;;;18.13;5.15;;;;;;;;;;4974937;28;20047;-73
2022/04/07 04:17:00;;;;;;;23.08;5.78;;;;;;;;;;4983821;28;20127;-72
2022/04/07 04:19:26;;;;;;;17.83;5.47;;;;;;;;;;4962595;28;20046;-73
2022/04/07 04:21:52;;;;;;;19.20;6.13;;;;;;;;;;4978537;28;20421;-72
2022/04/07 04:24:18;;;;;;;22.30;6.38;;;;;;;;;;4963723;28;20449;-72
2022/04/07 04:26:44;;;;;;;20.27;6.47;;;;;;;;;;4973348;28;20086;-72
2022/04/07 04:29:10;;;;;;;21.10;6.50;;;;;;;;;;4978922;28;20055;-71
2022/04/07 04:31:36;;;;;;;20.92;5.63;;;;;;;;;;4957799;28;20053;-72
2022/04/07 04:34:02;;;;;;;20.33;6.00;;;;;;;;;;4976788;28;20501;-72
2022/04/07 04:36:28;;;;;;;22.88;5.40;;;;;;;;;;4983575;28;20038;-72
2022/04/07 04:38:55;;;;;;;20.02;6.15;;;;;;;;;;4958519;28;20468;-72
2022/04/07 04:41:21;;;;;;;29.30;6.38;;;;;;;;;;4981886;28;20082;-73
2022/04/07 04:43:47;;;;;;;24.63;6.25;;;;;;;;;;4960540;28;20050;-72
2022/04/07 04:46:13;;;;;;;22.27;6.18;;;;;;;;;;4988585;28;20042;-72
2022/04/07 04:48:39;;;;;;;24.25;7.43;;;;;;;;;;4995573;28;20058;-72
2022/04/07 04:51:05;;;;;;;22.45;5.90;;;;;;;;;;4961572;28;20056;-73
2022/04/07 04:53:31;;;;;;;22.13;5.90;;;;;;;;;;4994446;28;20121;-72
2022/04/07 04:55:57;;;;;;;20.98;6.00;;;;;;;;;;4974306;28;20484;-72
2022/04/07 04:58:23;;;;;;;31.58;7.68;;;;;;;;;;4989007;28;20038;-73
2022/04/07 05:00:50;;;;;;;24.73;6.65;;;;;;;;;;4974562;28;20185;-72
2022/04/07 05:03:16;;;;;;;25.05;7.60;;;;;;;;;;4977498;28;20457;-72
2022/04/07 05:05:42;;;;;;;26.98;7.20;;;;;;;;;;4975322;28;20140;-72
2022/04/07 05:08:08;;;;;;;28.42;8.85;;;;;;;;;;4975829;28;20043;-72
2022/04/07 05:10:36;;;;;;;24.02;7.38;;;;;;;;;;4978545;28;20512;-73
2022/04/07 05:13:02;;;;;;;28.55;8.05;;;;;;;;;;4975229;28;20420;-72
2022/04/07 05:15:28;;;;;;;32.72;8.05;;;;;;;;;;4966149;28;20049;-72
2022/04/07 05:17:54;;;;;;;25.27;8.35;;;;;;;;;;4975302;28;20047;-71
2022/04/07 05:20:24;;;;;;;21.88;7.15;;;;;;;;;;4969425;28;20129;-71
2022/04/07 05:22:50;;;;;;;16.42;7.15;;;;;;;;;;4977223;28;20054;-73
2022/04/07 05:25:16;;;;;;;26.38;7.15;;;;;;;;;;4985815;28;20134;-72
2022/04/07 05:27:45;;;;;;;16.30;7.00;;;;;;;;;;4993768;28;20050;-73
2022/04/07 05:30:13;;;;;;;23.65;7.78;;;;;;;;;;4973860;28;20046;-73
2022/04/07 05:32:39;;;;;;;18.00;6.05;;;;;;;;;;4958162;28;20054;-73
2022/04/07 05:35:05;;;;;;;24.15;6.78;;;;;;;;;;4983023;28;20043;-73
2022/04/07 05:37:31;;;;;;;18.40;5.75;;;;;;;;;;4974965;28;20043;-73
2022/04/07 05:39:57;;;;;;;19.52;6.22;;;;;;;;;;4975350;28;20549;-73
2022/04/07 05:42:23;;;;;;;19.95;5.90;;;;;;;;;;4975413;28;20101;-73
2022/04/07 05:44:49;;;;;;;13.77;4.72;;;;;;;;;;4960215;28;20145;-75
2022/04/07 05:47:15;;;;;;;20.48;5.47;;;;;;;;;;4981122;28;20081;-72
2022/04/07 05:49:41;;;;;;;21.30;5.80;;;;;;;;;;4968724;28;20059;-72
2022/04/07 05:52:07;;;;;;;19.10;5.95;;;;;;;;;;4970014;28;20086;-72
2022/04/07 05:54:35;;;;;;;16.58;6.10;;;;;;;;;;4975585;28;20502;-73
2022/04/07 05:57:01;;;;;;;15.60;5.05;;;;;;;;;;4976541;28;20505;-76
2022/04/07 05:59:27;;;;;;;19.92;5.20;;;;;;;;;;4970152;28;20497;-74
2022/04/07 06:01:53;;;;;;;18.88;5.05;;;;;;;;;;4961134;28;20101;-72
2022/04/07 06:04:19;;;;;;;14.98;5.40;;;;;;;;;;4982930;28;20126;-73
2022/04/07 06:06:45;;;;;;;16.77;5.68;;;;;;;;;;4974765;28;20371;-75
2022/04/07 06:09:11;;;;;;;19.15;6.15;;;;;;;;;;4975337;28;20089;-73
2022/04/07 06:11:37;;;;;;;16.58;4.68;;;;;;;;;;4970299;28;20046;-74
2022/04/07 06:14:04;;;;;;;22.25;5.85;;;;;;;;;;4958796;28;20101;-73
2022/04/07 06:16:30;;;;;;;14.10;4.80;;;;;;;;;;4978408;28;20078;-77
2022/04/07 06:18:56;;;;;;;5.32;1.60;;;;;;;;;;4983301;28;20118;-75
2022/04/07 06:21:25;;;;;;;7.22;1.33;;;;;;;;;;4994220;28;20057;-75
2022/04/07 06:23:52;;;;;;;1.48;0.50;;;;;;;;;;4975846;28;20464;-74
2022/04/07 06:26:18;;;;;;;1.13;0.50;;;;;;;;;;4956842;28;20050;-74
2022/04/07 06:28:45;;;;;;;5.78;0.50;;;;;;;;;;4971500;28;20073;-73
2022/04/07 06:31:11;;;;;;;2.05;0.63;;;;;;;;;;4965153;28;20077;-73
2022/04/07 06:33:37;;;;;;;4.03;0.70;;;;;;;;;;4992825;28;20489;-75
2022/04/07 06:36:03;;;;;;;4.45;0.57;;;;;;;;;;4975957;28;20074;-74
2022/04/07 06:38:31;;;;;;;2.95;0.45;;;;;;;;;;4985276;28;20054;-73
2022/04/07 06:41:00;;;;;;;2.70;0.70;;;;;;;;;;4983472;28;20046;-74
2022/04/07 06:43:26;;;;;;;2.55;0.60;;;;;;;;;;4975145;28;20038;-74
2022/04/07 06:45:52;;;;;;;4.72;0.80;;;;;;;;;;4969221;28;20559;-74
2022/04/07 06:48:18;;;;;;;1.40;0.50;;;;;;;;;;4987240;28;20065;-73
2022/04/07 06:50:45;;;;;;;6.07;0.80;;;;;;;;;;4978833;28;20058;-73
2022/04/07 06:53:14;;;;;;;4.20;0.80;;;;;;;;;;4972419;28;20133;-74
2022/04/07 06:55:40;;;;;;;3.65;0.70;;;;;;;;;;4975275;28;20050;-75
2022/04/07 06:58:08;;;;;;;4.03;1.00;;;;;;;;;;4988665;28;20043;-74
2022/04/07 07:00:36;;;;;;;1.45;0.63;;;;;;;;;;4974886;28;20049;-75
2022/04/07 07:03:03;;;;;;;1.10;0.40;;;;;;;;;;4960909;28;20058;-73
2022/04/07 07:05:33;;;;;;;2.33;0.80;;;;;;;;;;4981814;28;20038;-73
2022/04/07 07:08:13;;;;;;;3.67;1.10;;;;;;;;;;4970668;28;20046;-77
2022/04/07 07:10:39;;;;;;;2.35;0.70;;;;;;;;;;4958596;28;20046;-74
2022/04/07 07:13:05;;;;;;;2.83;0.75;;;;;;;;;;4978393;28;20057;-76
2022/04/07 07:15:31;;;;;;;3.38;0.88;;;;;;;;;;4987006;28;20117;-74
2022/04/07 07:17:57;;;;;;;5.95;1.00;;;;;;;;;;4961488;28;20481;-74
2022/04/07 07:20:23;;;;;;;2.47;0.70;;;;;;;;;;4974782;28;20494;-74
2022/04/07 07:22:49;;;;;;;3.30;0.50;;;;;;;;;;4978733;28;20072;-75
2022/04/07 07:25:15;;;;;;;2.15;0.65;;;;;;;;;;4962447;28;20045;-74
2022/04/07 07:27:43;;;;;;;0.70;0.47;;;;;;;;;;4976030;28;20047;-76
2022/04/07 07:30:10;;;;;;;5.40;1.08;;;;;;;;;;4982632;28;20129;-74
2022/04/07 07:32:38;;;;;;;0.98;0.40;;;;;;;;;;4977158;28;20115;-76
2022/04/07 07:35:05;;;;;;;2.40;0.50;;;;;;;;;;4962784;28;20045;-77
2022/04/07 07:37:31;;;;;;;3.72;0.70;;;;;;;;;;4960033;28;20047;-73
2022/04/07 07:39:57;;;;;;;6.20;1.27;;;;;;;;;;4959982;28;20409;-73
2022/04/07 07:42:24;;;;;;;7.57;0.70;;;;;;;;;;4965536;28;20042;-74
2022/04/07 07:44:50;;;;;;;4.00;0.90;;;;;;;;;;4995994;28;20054;-73
2022/04/07 07:47:16;;;;;;;5.60;1.00;;;;;;;;;;4991529;28;20404;-74
2022/04/07 07:49:42;;;;;;;2.67;0.95;;;;;;;;;;4975025;28;20564;-73
2022/04/07 07:52:08;;;;;;;5.38;1.05;;;;;;;;;;4983201;28;20497;-73
2022/04/07 07:54:34;;;;;;;2.17;0.80;;;;;;;;;;4980911;28;20129;-74
2022/04/07 07:57:00;;;;;;;8.10;1.65;;;;;;;;;;4972959;28;20189;-74
2022/04/07 07:59:26;;;;;;;18.35;3.63;;;;;;;;;;4990907;28;20519;-73
2022/04/07 08:01:52;;;;;;;18.60;2.95;;;;;;;;;;4985784;28;20047;-74
2022/04/07 08:04:18;;;;;;;10.50;1.98;;;;;;;;;;4989484;28;20053;-74
2022/04/07 08:06:44;;;;;;;9.98;2.33;;;;;;;;;;4997782;28;20046;-75
2022/04/07 08:09:10;;;;;;;2.58;0.80;;;;;;;;;;4981267;28;20471;-75
2022/04/07 08:11:36;;;;;;;4.68;1.30;;;;;;;;;;4961646;28;20134;-74
2022/04/07 08:14:03;;;;;;;6.05;1.67;;;;;;;;;;4972150;28;20127;-73
2022/04/07 08:16:30;;;;;;;7.10;1.20;;;;;;;;;;4989855;28;20046;-73
2022/04/07 08:18:56;;;;;;;4.13;1.10;;;;;;;;;;4976360;28;20042;-74
2022/04/07 08:21:22;;;;;;;3.35;1.20;;;;;;;;;;4975359;28;20039;-74
2022/04/07 08:23:48;;;;;;;7.25;1.40;;;;;;;;;;4953868;28;20489;-73
2022/04/07 08:26:15;;;;;;;5.00;1.23;;;;;;;;;;4972826;28;20042;-74
2022/04/07 08:28:41;;;;;;;4.38;1.20;;;;;;;;;;4984137;28;20476;-74
2022/04/07 08:31:10;;;;;;;;;;;;;;;;;;4982602;28;20042;-73
2022/04/07 08:33:36;;;;;;;7.47;1.10;;;;;;;;;;4987114;28;19922;-73
2022/04/07 08:36:02;;;;;;;4.10;1.00;;;;;;;;;;4967929;28;20046;-73
2022/04/07 08:38:28;;;;;;;6.60;1.50;;;;;;;;;;4976896;28;20182;-73
2022/04/07 08:40:55;;;;;;;3.67;1.10;;;;;;;;;;4984268;28;20453;-74
2022/04/07 08:43:22;;;;;;;4.47;1.05;;;;;;;;;;4990835;28;20038;-74
2022/04/07 08:45:49;;;;;;;5.45;1.40;;;;;;;;;;4953275;28;20050;-73
2022/04/07 08:48:15;;;;;;;6.63;1.45;;;;;;;;;;4969759;28;20146;-72
2022/04/07 08:50:41;;;;;;;5.82;0.93;;;;;;;;;;4984391;28;20039;-73
2022/04/07 08:53:08;;;;;;;5.38;1.10;;;;;;;;;;4971622;28;20049;-74
2022/04/07 08:55:34;;;;;;;10.80;1.83;;;;;;;;;;4973059;28;20464;-73
2022/04/07 08:58:00;;;;;;;6.35;0.68;;;;;;;;;;4985112;28;20501;-74
2022/04/07 09:00:26;;;;;;;7.45;1.70;;;;;;;;;;4966287;28;20103;-73
2022/04/07 09:02:53;;;;;;;8.65;1.73;;;;;;;;;;4991217;28;20046;-74
2022/04/07 09:05:26;;;;;;;5.72;1.15;;;;;;;;;;4957935;28;20507;-73
2022/04/07 09:07:52;;;;;;;3.85;1.08;;;;;;;;;;4975470;28;20500;-73
2022/04/07 09:10:19;;;;;;;10.75;1.60;;;;;;;;;;4959194;28;20126;-73
2022/04/07 09:12:45;;;;;;;6.90;1.35;;;;;;;;;;4979032;28;20493;-72
2022/04/07 09:15:15;;;;;;;5.18;0.95;;;;;;;;;;4992474;28;20050;-77
2022/04/07 09:17:54;;;;;;;6.25;1.00;;;;;;;;;;4975883;28;20047;-73
2022/04/07 09:20:21;;;;;;;4.80;1.20;;;;;;;;;;4990310;28;20046;-72
2022/04/07 09:23:01;;;;;;;2.67;0.70;;;;;;;;;;4973918;28;20050;-71
2022/04/07 09:25:27;;;;;;;1.73;0.68;;;;;;;;;;4977297;28;20142;-73
2022/04/07 09:27:57;;;;;;;2.83;0.85;;;;;;;;;;4977902;28;20385;-72
2022/04/07 09:30:23;;;;;;;4.07;1.33;;;;;;;;;;4984817;28;20053;-74
2022/04/07 09:32:49;;;;;;;3.13;0.93;;;;;;;;;;4977489;28;20174;-72
2022/04/07 09:35:15;;;;;;;3.42;1.40;;;;;;;;;;4951756;28;20043;-73
2022/04/07 09:37:42;;;;;;;7.10;1.30;;;;;;;;;;4964233;28;20038;-75
2022/04/07 09:40:10;;;;;;;6.22;1.77;;;;;;;;;;4946592;28;20054;-72
2022/04/07 09:42:37;;;;;;;6.40;1.52;;;;;;;;;;4974259;28;20057;-73
2022/04/07 09:45:09;;;;;;;4.85;1.48;;;;;;;;;;4970869;28;20043;-73
2022/04/07 09:47:39;;;;;;;7.57;1.27;;;;;;;;;;4987349;28;20436;-71
2022/04/07 09:50:06;;;;;;;4.55;0.90;;;;;;;;;;4974067;28;20054;-72
2022/04/07 09:52:32;;;;;;;3.58;1.20;;;;;;;;;;4957133;28;20093;-75
2022/04/07 09:55:03;;;;;;;5.63;1.30;;;;;;;;;;4972497;28;20109;-74
2022/04/07 09:57:29;;;;;;;6.20;1.50;;;;;;;;;;4977719;28;20146;-74
2022/04/07 09:59:55;;;;;;;5.13;1.63;;;;;;;;;;4974197;28;20051;-73
2022/04/07 10:02:21;;;;;;;6.75;1.23;;;;;;;;;;4958646;28;20117;-74
2022/04/07 10:04:48;;;;;;;6.40;1.52;;;;;;;;;;4984533;28;20394;-75
2022/04/07 10:07:15;;;;;;;9.35;1.63;;;;;;;;;;4982376;28;20084;-74
2022/04/07 10:09:42;;;;;;;7.85;1.70;;;;;;;;;;4994798;28;20100;-76
2022/04/07 10:12:09;;;;;;;7.50;1.67;;;;;;;;;;4978343;28;20058;-73
2022/04/07 10:14:37;;;;;;;10.82;2.30;;;;;;;;;;4975245;28;20101;-73
2022/04/07 10:17:03;;;;;;;9.02;1.40;;;;;;;;;;4981478;28;20043;-75
2022/04/07 10:19:35;;;;;;;7.15;1.88;;;;;;;;;;4969317;28;20529;-74
2022/04/07 10:22:12;;;;;;;8.77;1.77;;;;;;;;;;4952720;28;20043;-72
2022/04/07 10:24:43;;;;;;;6.18;1.58;;;;;;;;;;4970594;28;20055;-75
2022/04/07 10:27:10;;;;;;;6.45;1.70;;;;;;;;;;4972775;28;20046;-71
2022/04/07 10:29:38;;;;;;;10.18;1.65;;;;;;;;;;4978537;28;20042;-73
2022/04/07 10:32:19;;;;;;;9.60;1.80;;;;;;;;;;4985999;28;20076;-73
2022/04/07 10:34:57;;;;;;;7.03;1.55;;;;;;;;;;4992991;28;20054;-73
2022/04/07 10:37:42;;;;;;;13.95;2.60;;;;;;;;;;4985783;28;20053;-72
2022/04/07 10:40:27;;;;;;;7.55;1.50;;;;;;;;;;4989560;28;20078;-73
2022/04/07 10:43:13;;;;;;;8.18;1.98;;;;;;;;;;4956872;28;20045;-74
2022/04/07 10:45:40;;;;;;;8.30;1.90;;;;;;;;;;4993233;28;20072;-76
2022/04/07 10:48:24;;;;;;;10.07;1.60;;;;;;;;;;4976388;28;20061;-76
2022/04/07 10:50:51;;;;;;;7.30;1.70;;;;;;;;;;4974217;28;20050;-77
2022/04/07 10:53:36;;;;;;;7.53;2.05;;;;;;;;;;4981869;28;20049;-74
2022/04/07 10:56:07;;;;;;;10.82;2.10;;;;;;;;;;4973136;28;20489;-75
2022/04/07 10:58:44;;;;;;;10.60;2.00;;;;;;;;;;4955944;28;20057;-76
2022/04/07 11:01:30;;;;;;;13.65;2.70;;;;;;;;;;4970204;28;20042;-74
2022/04/07 11:04:15;;;;;;;11.32;2.05;;;;;;;;;;4967420;28;20055;-74
2022/04/07 11:07:01;;;;;;;11.52;2.17;;;;;;;;;;4955956;28;20086;-77
2022/04/07 11:09:27;;;;;;;14.98;2.28;;;;;;;;;;4978352;28;20089;-76
2022/04/07 11:11:53;;;;;;;8.25;1.83;;;;;;;;;;4988271;28;20070;-74
2022/04/07 11:14:26;;;;;;;10.27;2.50;;;;;;;;;;4994242;28;20097;-75
2022/04/07 11:16:54;;;;;;;10.80;1.85;;;;;;;;;;4994962;28;20038;-76
2022/04/07 11:19:39;;;;;;;10.80;2.45;;;;;;;;;;4961616;28;20408;-77
2022/04/07 11:22:10;;;;;;;10.13;2.00;;;;;;;;;;4977816;28;20553;-76
2022/04/07 11:24:42;;;;;;;10.88;2.08;;;;;;;;;;4962358;28;20497;-76
2022/04/07 11:27:33;;;;;;;11.65;2.00;;;;;;;;;;4991353;28;20046;-76
2022/04/07 11:30:03;;;;;;;15.80;2.25;;;;;;;;;;4960812;28;20043;-77
2022/04/07 11:32:30;;;;;;;7.72;1.88;;;;;;;;;;4966028;28;20453;-76
2022/04/07 11:34:58;;;;;;;13.05;1.77;;;;;;;;;;4977665;28;20186;-78
2022/04/07 11:37:26;;;;;;;9.00;1.80;;;;;;;;;;4997247;28;20394;-74
2022/04/07 11:39:53;;;;;;;9.63;1.92;;;;;;;;;;5000845;28;20378;-76
2022/04/07 11:42:20;;;;;;;9.80;2.22;;;;;;;;;;4971480;28;20485;-76
2022/04/07 11:44:47;;;;;;;14.02;2.38;;;;;;;;;;4976667;28;20093;-74
2022/04/07 11:47:23;;;;;;;8.45;1.88;;;;;;;;;;4990305;28;20093;-77
2022/04/07 11:49:51;;;;;;;18.70;3.63;;;;;;;;;;4981590;28;20054;-78
2022/04/07 11:52:25;;;;;;;13.50;2.22;;;;;;;;;;4986395;28;20062;-75
2022/04/07 11:54:55;;;;;;;10.68;1.85;;;;;;;;;;4978657;28;20053;-77
2022/04/07 11:57:22;;;;;;;10.82;1.83;;;;;;;;;;4990673;28;20516;-76
2022/04/07 11:59:48;;;;;;;7.53;1.40;;;;;;;;;;4973437;28;20054;-79
2022/04/07 12:02:20;;;;;;;23.20;3.72;;;;;;;;;;4970889;28;20086;-78
2022/04/07 12:04:46;;;;;;;7.10;1.70;;;;;;;;;;4986762;28;20046;-79
2022/04/07 12:07:12;;;;;;;11.32;2.00;;;;;;;;;;4987786;28;20038;-76
2022/04/07 12:09:39;;;;;;;8.40;1.63;;;;;;;;;;4983943;28;20066;-77
2022/04/07 12:12:06;;;;;;;9.88;1.75;;;;;;;;;;4986214;28;20039;-76
2022/04/07 12:14:32;;;;;;;8.98;2.50;;;;;;;;;;4973019;28;20493;-76
2022/04/07 12:16:59;;;;;;;8.73;1.55;;;;;;;;;;4988026;28;20053;-78
2022/04/07 12:19:25;;;;;;;11.68;2.00;;;;;;;;;;4942856;28;20375;-79
2022/04/07 12:21:59;;;;;;;16.77;2.85;;;;;;;;;;4989608;28;20050;-78
2022/04/07 12:24:25;;;;;;;9.23;2.13;;;;;;;;;;4975773;28;20038;-79
2022/04/07 12:26:54;;;;;;;9.07;2.10;;;;;;;;;;4957825;28;20058;-77
2022/04/07 12:29:21;;;;;;;8.57;1.75;;;;;;;;;;4975413;28;20043;-78
2022/04/07 12:32:03;;;;;;;12.35;2.88;;;;;;;;;;4991081;28;20050;-76
2022/04/07 12:34:30;;;;;;;8.95;1.73;;;;;;;;;;4967114;28;20038;-75
2022/04/07 12:36:56;;;;;;;9.32;1.90;;;;;;;;;;4984966;28;20106;-77
2022/04/07 12:39:27;;;;;;;8.60;1.58;;;;;;;;;;4979203;28;20047;-76
2022/04/07 12:41:54;;;;;;;8.82;1.65;;;;;;;;;;4993086;28;20553;-79
2022/04/07 12:44:23;;;;;;;12.18;2.42;;;;;;;;;;4988738;28;20061;-77
2022/04/07 12:46:50;;;;;;;8.25;1.77;;;;;;;;;;4972541;28;20045;-79
2022/04/07 12:49:23;;;;;;;10.60;1.52;;;;;;;;;;4974903;28;20054;-77
2022/04/07 12:52:00;;;;;;;7.57;1.50;;;;;;;;;;4981234;28;20050;-77
2022/04/07 12:54:25;;;;;;;9.25;1.50;;;;;;;;;;4960831;28;20385;-78
2022/04/07 12:57:06;;;;;;;9.05;1.70;;;;;;;;;;4976744;28;20043;-78
2022/04/07 12:59:32;;;;;;;7.30;1.70;;;;;;;;;;4987494;28;20049;-77
2022/04/07 13:01:58;;;;;;;6.45;1.60;;;;;;;;;;4961696;28;20438;-79
2022/04/07 13:04:44;;;;;;;7.68;1.55;;;;;;;;;;4977756;28;20049;-78
2022/04/07 13:07:10;;;;;;;7.50;1.45;;;;;;;;;;4996230;28;20061;-77
2022/04/07 13:09:37;;;;;;;6.35;1.15;;;;;;;;;;4996934;28;20097;-77
2022/04/07 13:12:03;;;;;;;10.57;1.50;;;;;;;;;;4968140;28;20039;-77
2022/04/07 13:14:29;;;;;;;10.82;1.52;;;;;;;;;;4986515;28;20398;-77
2022/04/07 13:16:55;;;;;;;7.03;1.63;;;;;;;;;;4989760;28;20050;-77
2022/04/07 13:19:21;;;;;;;10.45;1.52;;;;;;;;;;4959757;28;20042;-76
2022/04/07 13:21:47;;;;;;;2.78;0.70;;;;;;;;;;4966445;28;20072;-76
2022/04/07 13:24:13;;;;;;;7.45;1.10;;;;;;;;;;4973545;28;20051;-77
2022/04/07 13:26:39;;;;;;;6.72;1.63;;;;;;;;;;4953626;28;20051;-75
2022/04/07 13:29:05;;;;;;;7.35;1.45;;;;;;;;;;4987259;28;20125;-73
2022/04/07 13:31:31;;;;;;;3.90;0.70;;;;;;;;;;4981113;28;20042;-73
2022/04/07 13:33:58;;;;;;;3.67;0.82;;;;;;;;;;4986592;28;20038;-75
2022/04/07 13:36:24;;;;;;;7.22;2.33;;;;;;;;;;4993028;28;20058;-72
2022/04/07 13:38:50;;;;;;;4.82;1.25;;;;;;;;;;4984270;28;20150;-74
2022/04/07 13:41:16;;;;;;;8.30;2.10;;;;;;;;;;4962588;28;20046;-75
2022/04/07 13:43:42;;;;;;;9.55;1.80;;;;;;;;;;4973933;28;20122;-72
2022/04/07 13:46:08;;;;;;;6.28;1.40;;;;;;;;;;4967141;28;20462;-75
2022/04/07 13:48:36;;;;;;;5.78;1.48;;;;;;;;;;4986342;28;20078;-75
2022/04/07 13:51:02;;;;;;;7.07;1.98;;;;;;;;;;4975298;28;20066;-74
2022/04/07 13:53:28;;;;;;;4.55;1.45;;;;;;;;;;4963999;28;20409;-74
2022/04/07 13:55:54;;;;;;;5.07;1.60;;;;;;;;;;4976745;28;20050;-73
2022/04/07 13:58:20;;;;;;;4.68;1.52;;;;;;;;;;4967474;28;20043;-74
2022/04/07 14:00:46;;;;;;;5.05;1.42;;;;;;;;;;4962931;28;20046;-73
2022/04/07 14:03:12;;;;;;;4.25;1.20;;;;;;;;;;4983577;28;20053;-74
2022/04/07 14:05:39;;;;;;;5.90;1.25;;;;;;;;;;4985545;28;20457;-74
2022/04/07 14:08:06;;;;;;;8.10;2.28;;;;;;;;;;4969183;28;20051;-73
2022/04/07 14:10:32;;;;;;;6.15;1.27;;;;;;;;;;4986572;28;20501;-75
2022/04/07 14:12:58;;;;;;;8.30;1.63;;;;;;;;;;4985869;28;20053;-75
2022/04/07 14:15:24;;;;;;;7.43;2.10;;;;;;;;;;4970757;28;20057;-74
2022/04/07 14:17:50;;;;;;;8.82;1.77;;;;;;;;;;4967444;28;20060;-73
2022/04/07 14:20:16;;;;;;;7.18;1.70;;;;;;;;;;4983310;28;20039;-73
2022/04/07 14:22:43;;;;;;;10.57;1.92;;;;;;;;;;4984735;28;20129;-73
2022/04/07 14:25:10;;;;;;;7.90;1.60;;;;;;;;;;4984943;28;20042;-72
2022/04/07 14:27:36;;;;;;;11.40;2.45;;;;;;;;;;4977827;28;20097;-74
2022/04/07 14:30:02;;;;;;;13.40;2.47;;;;;;;;;;4989350;28;20050;-74
2022/04/07 14:32:28;;;;;;;9.32;2.53;;;;;;;;;;4975533;28;20049;-74
2022/04/07 14:34:54;;;;;;;10.95;2.10;;;;;;;;;;4989776;28;20046;-75
2022/04/07 14:37:20;;;;;;;8.45;2.33;;;;;;;;;;4985738;28;20074;-73